Time;durP1;ratioP1;P1;durP2;ratioP2;P2;SDS_P1;SDS_P2;PMS_P1;PMS_P2;Temp;Humidity;BMP_temperature;BMP_pressure;BME280_temperature;BME280_humidity;BME280_pressure;Samples;Min_cycle;Max_cycle;Signal;HPM_P1;HPM_P2
2021/07/10 00:00:56;;;;;;;16.17;11.73;;;16.20;93.70;;;;;;5071982;28;20032;-68
2021/07/10 00:03:21;;;;;;;14.98;10.95;;;16.10;93.70;;;;;;5055001;28;20480;-68
2021/07/10 00:05:47;;;;;;;14.23;11.32;;;16.10;93.70;;;;;;5072109;28;20036;-69
2021/07/10 00:08:14;;;;;;;17.48;12.27;;;16.10;93.70;;;;;;5069820;28;20027;-69
2021/07/10 00:10:39;;;;;;;13.93;11.23;;;16.10;93.80;;;;;;5073167;28;20027;-68
2021/07/10 00:13:05;;;;;;;30.92;12.65;;;16.10;93.80;;;;;;5072986;28;20028;-68
2021/07/10 00:15:30;;;;;;;17.33;12.13;;;16.10;93.80;;;;;;5071739;28;20435;-69
2021/07/10 00:17:56;;;;;;;18.63;12.32;;;16.00;93.80;;;;;;5072837;28;20416;-69
2021/07/10 00:20:22;;;;;;;41.55;12.25;;;15.90;93.80;;;;;;5072754;28;20082;-68
2021/07/10 00:22:48;;;;;;;31.50;12.43;;;15.90;94.00;;;;;;5072095;28;20048;-69
2021/07/10 00:25:16;;;;;;;19.17;12.80;;;15.80;93.80;;;;;;5071571;28;20528;-69
2021/07/10 00:27:44;;;;;;;24.50;13.00;;;15.80;94.10;;;;;;5072589;28;20038;-68
2021/07/10 00:30:10;;;;;;;21.05;12.43;;;15.80;94.10;;;;;;5072180;28;20044;-68
2021/07/10 00:32:36;;;;;;;25.60;13.68;;;15.70;94.10;;;;;;5072611;28;20491;-68
2021/07/10 00:35:03;;;;;;;25.23;12.57;;;15.70;94.40;;;;;;5071065;28;20032;-68
2021/07/10 00:37:29;;;;;;;25.83;10.40;;;15.70;94.20;;;;;;5072089;28;20028;-68
2021/07/10 00:39:54;;;;;;;21.50;10.18;;;15.70;94.20;;;;;;5051320;28;20027;-68
2021/07/10 00:42:21;;;;;;;29.00;10.40;;;15.60;94.20;;;;;;5072294;28;20450;-69
2021/07/10 00:44:48;;;;;;;27.42;7.40;;;15.60;94.20;;;;;;5071175;28;20024;-68
2021/07/10 00:47:14;;;;;;;40.65;8.00;;;15.50;94.30;;;;;;5070315;28;20119;-69
2021/07/10 00:49:40;;;;;;;20.33;7.38;;;15.50;94.40;;;;;;5068994;28;20138;-69
2021/07/10 00:52:06;;;;;;;8.57;6.45;;;15.40;94.40;;;;;;5072408;28;20027;-68
2021/07/10 00:54:32;;;;;;;16.63;6.68;;;15.30;94.40;;;;;;5071954;28;20100;-68
2021/07/10 00:57:01;;;;;;;9.02;6.07;;;15.30;94.50;;;;;;5071001;28;20025;-68
2021/07/10 00:59:27;;;;;;;8.82;6.63;;;15.30;94.50;;;;;;5064447;28;20064;-68
2021/07/10 01:01:53;;;;;;;10.95;6.60;;;15.30;94.50;;;;;;5053359;28;20029;-69
2021/07/10 01:04:19;;;;;;;10.10;6.47;;;15.30;94.50;;;;;;5071654;28;20534;-68
2021/07/10 01:06:47;;;;;;;7.95;6.65;;;15.20;94.50;;;;;;5070773;28;20364;-68
2021/07/10 01:09:16;;;;;;;6.18;5.47;;;15.20;94.50;;;;;;5067268;28;20131;-68
2021/07/10 01:11:43;;;;;;;10.05;6.05;;;15.20;94.50;;;;;;5075735;28;20027;-68
2021/07/10 01:14:09;;;;;;;7.50;6.50;;;15.30;94.50;;;;;;5071056;28;20032;-69
2021/07/10 01:16:35;;;;;;;7.57;6.05;;;15.20;94.40;;;;;;5070620;28;20469;-68
2021/07/10 01:19:00;;;;;;;6.78;6.07;;;15.30;94.40;;;;;;5071432;28;20092;-69
2021/07/10 01:21:26;;;;;;;6.93;5.70;;;15.20;94.30;;;;;;5070857;28;20021;-68
2021/07/10 01:23:52;;;;;;;9.25;6.10;;;15.20;94.30;;;;;;5071006;28;20028;-68
2021/07/10 01:26:19;;;;;;;8.60;5.70;;;15.20;94.30;;;;;;5070371;28;20483;-68
2021/07/10 01:28:44;;;;;;;8.52;5.95;;;15.20;94.20;;;;;;5071444;28;20039;-69
2021/07/10 01:31:10;;;;;;;6.10;5.50;;;15.10;94.10;;;;;;5071725;28;20021;-69
2021/07/10 01:33:36;;;;;;;9.45;5.70;;;15.10;94.20;;;;;;5070521;28;20028;-68
2021/07/10 01:36:02;;;;;;;5.72;5.18;;;15.10;94.20;;;;;;5069877;28;20032;-69
2021/07/10 01:38:28;;;;;;;6.40;5.15;;;15.10;94.20;;;;;;5073435;28;20040;-69
2021/07/10 01:40:53;;;;;;;5.32;4.82;;;15.10;94.20;;;;;;5072571;28;20035;-68
2021/07/10 01:43:19;;;;;;;7.45;4.40;;;15.10;94.10;;;;;;5071134;28;20048;-69
2021/07/10 01:45:44;;;;;;;7.43;4.28;;;15.00;94.00;;;;;;5070159;28;20024;-69
2021/07/10 01:48:12;;;;;;;4.82;4.43;;;15.00;94.00;;;;;;5071294;28;20480;-68
2021/07/10 01:50:39;;;;;;;4.40;4.00;;;15.00;94.00;;;;;;5070849;28;20048;-68
2021/07/10 01:53:04;;;;;;;4.00;3.70;;;14.90;94.00;;;;;;5070766;28;20032;-68
2021/07/10 01:55:30;;;;;;;4.72;4.30;;;14.90;94.00;;;;;;5069708;28;20063;-69
2021/07/10 01:57:57;;;;;;;4.03;3.72;;;14.90;94.00;;;;;;5069831;28;20497;-68
2021/07/10 02:00:28;;;;;;;4.03;3.72;;;14.80;93.90;;;;;;5070068;28;20031;-69
2021/07/10 02:02:55;;;;;;;4.28;3.58;;;14.80;94.00;;;;;;5065554;28;20029;-69
2021/07/10 02:05:23;;;;;;;4.80;4.22;;;14.80;94.00;;;;;;5068848;28;20477;-69
2021/07/10 02:07:50;;;;;;;4.30;3.88;;;14.80;94.00;;;;;;5070796;28;20023;-69
2021/07/10 02:10:18;;;;;;;4.43;4.03;;;14.80;93.90;;;;;;5070137;28;20028;-69
2021/07/10 02:12:52;;;;;;;4.32;4.03;;;14.70;93.90;;;;;;5052449;28;20056;-68
2021/07/10 02:15:18;;;;;;;4.00;3.70;;;14.70;93.90;;;;;;5068714;28;20506;-69
2021/07/10 02:17:44;;;;;;;4.43;4.03;;;14.70;94.00;;;;;;5070173;28;20043;-69
2021/07/10 02:20:12;;;;;;;4.80;3.92;;;14.60;93.90;;;;;;5069863;28;20021;-69
2021/07/10 02:22:38;;;;;;;10.95;4.22;;;14.60;93.90;;;;;;5070244;28;20070;-68
2021/07/10 02:25:08;;;;;;;5.82;4.13;;;14.60;94.00;;;;;;5068834;28;20656;-68
2021/07/10 02:27:34;;;;;;;19.05;4.63;;;14.50;94.10;;;;;;5052033;28;20503;-68
2021/07/10 02:30:00;;;;;;;16.45;5.13;;;14.50;94.10;;;;;;5070844;28;20044;-68
2021/07/10 02:32:25;;;;;;;13.20;4.80;;;14.40;94.10;;;;;;5070055;28;20016;-69
2021/07/10 02:34:51;;;;;;;14.70;5.10;;;14.40;94.20;;;;;;5068802;28;20078;-68
2021/07/10 02:37:16;;;;;;;19.83;5.47;;;14.30;94.20;;;;;;5069817;28;20157;-68
2021/07/10 02:39:42;;;;;;;11.32;5.38;;;14.30;94.40;;;;;;5090593;28;20019;-68
2021/07/10 02:42:08;;;;;;;13.88;5.10;;;14.20;94.60;;;;;;5078715;28;20074;-68
2021/07/10 02:44:33;;;;;;;16.73;6.10;;;14.20;94.40;;;;;;5068865;28;20042;-69
2021/07/10 02:46:59;;;;;;;15.93;5.72;;;14.10;94.50;;;;;;5069840;28;20439;-68
2021/07/10 02:49:24;;;;;;;10.85;5.38;;;14.10;94.60;;;;;;5051172;28;20025;-68
2021/07/10 02:51:50;;;;;;;13.02;5.20;;;14.10;94.70;;;;;;5070043;28;20461;-68
2021/07/10 02:54:16;;;;;;;15.98;5.78;;;14.10;94.80;;;;;;5069330;28;20314;-69
2021/07/10 02:56:41;;;;;;;16.60;5.80;;;14.10;94.70;;;;;;5068958;28;20089;-68
2021/07/10 02:59:07;;;;;;;18.27;5.93;;;14.10;94.80;;;;;;5069561;28;20104;-68
2021/07/10 03:01:32;;;;;;;27.77;6.07;;;14.10;94.80;;;;;;5070136;28;20039;-68
2021/07/10 03:03:59;;;;;;;20.00;5.35;;;14.10;94.80;;;;;;5067851;28;20028;-68
2021/07/10 03:06:24;;;;;;;15.52;5.35;;;14.10;94.90;;;;;;5068861;28;20032;-68
2021/07/10 03:08:50;;;;;;;11.05;5.00;;;14.00;94.90;;;;;;5074842;28;20040;-69
2021/07/10 03:11:16;;;;;;;13.88;4.93;;;14.00;95.00;;;;;;5083271;28;20021;-68
2021/07/10 03:13:41;;;;;;;18.40;5.75;;;14.10;95.10;;;;;;5069786;28;20128;-68
2021/07/10 03:16:07;;;;;;;10.23;5.00;;;14.10;95.10;;;;;;5068333;28;20028;-69
2021/07/10 03:18:33;;;;;;;7.50;5.15;;;14.10;95.10;;;;;;5069302;28;20417;-68
2021/07/10 03:20:59;;;;;;;7.00;4.50;;;14.10;95.20;;;;;;5054738;28;20064;-68
2021/07/10 03:23:25;;;;;;;6.93;4.93;;;14.10;95.20;;;;;;5052020;28;20197;-68
2021/07/10 03:25:50;;;;;;;7.00;4.95;;;14.20;95.20;;;;;;5048676;28;20082;-69
2021/07/10 03:28:16;;;;;;;8.75;5.20;;;14.20;95.20;;;;;;5069833;28;20056;-69
2021/07/10 03:30:42;;;;;;;6.30;4.95;;;14.20;95.10;;;;;;5068859;28;20082;-69
2021/07/10 03:33:07;;;;;;;8.57;4.95;;;14.10;95.10;;;;;;5050099;28;20032;-68
2021/07/10 03:35:33;;;;;;;7.63;4.28;;;14.00;95.10;;;;;;5066179;28;20060;-69
2021/07/10 03:37:58;;;;;;;9.55;4.72;;;14.00;95.10;;;;;;5073676;28;20032;-68
2021/07/10 03:40:27;;;;;;;6.25;4.65;;;13.90;95.20;;;;;;5073605;28;20021;-68
2021/07/10 03:42:53;;;;;;;10.15;4.80;;;13.80;95.10;;;;;;5073246;28;20030;-68
2021/07/10 03:45:20;;;;;;;5.00;4.00;;;13.80;95.30;;;;;;5072831;28;20093;-68
2021/07/10 03:47:49;;;;;;;7.50;3.95;;;13.80;95.30;;;;;;5073566;28;20029;-68
2021/07/10 03:50:16;;;;;;;9.25;3.47;;;13.80;95.30;;;;;;5073266;28;20024;-68
2021/07/10 03:52:42;;;;;;;5.20;3.55;;;13.70;95.30;;;;;;5059768;28;20072;-69
2021/07/10 03:55:11;;;;;;;7.80;3.45;;;13.70;95.30;;;;;;5057286;28;20029;-68
2021/07/10 03:57:37;;;;;;;7.95;3.20;;;13.60;95.20;;;;;;5059386;28;20504;-68
2021/07/10 04:00:09;;;;;;;4.22;3.17;;;13.60;95.20;;;;;;5072626;28;20032;-68
2021/07/10 04:02:35;;;;;;;2.90;2.70;;;13.50;95.20;;;;;;5054209;28;20027;-68
2021/07/10 04:05:01;;;;;;;4.63;3.00;;;13.40;95.30;;;;;;5072241;28;20502;-68
2021/07/10 04:07:26;;;;;;;3.22;2.88;;;13.40;95.20;;;;;;5055066;28;20032;-68
2021/07/10 04:09:52;;;;;;;6.30;2.90;;;13.40;95.20;;;;;;5072913;28;20025;-69
2021/07/10 04:12:17;;;;;;;5.68;2.72;;;13.30;95.20;;;;;;5054887;28;20052;-68
2021/07/10 04:14:43;;;;;;;3.00;2.80;;;13.30;95.30;;;;;;5071892;28;20043;-69
2021/07/10 04:17:08;;;;;;;10.07;3.28;;;13.30;95.20;;;;;;5072920;28;20142;-68
2021/07/10 04:19:34;;;;;;;3.10;2.90;;;13.30;95.30;;;;;;5054002;28;20044;-68
2021/07/10 04:22:00;;;;;;;5.20;2.92;;;13.30;95.30;;;;;;5073155;28;20020;-68
2021/07/10 04:24:25;;;;;;;3.15;2.95;;;13.30;95.20;;;;;;5054994;28;20033;-68
2021/07/10 04:26:51;;;;;;;2.95;2.75;;;13.40;95.40;;;;;;5071736;28;20032;-68
2021/07/10 04:29:17;;;;;;;3.22;2.85;;;13.40;95.20;;;;;;5070927;28;20019;-70
2021/07/10 04:31:43;;;;;;;3.88;2.75;;;13.40;95.20;;;;;;5073073;28;20020;-68
2021/07/10 04:34:08;;;;;;;2.97;2.72;;;13.50;95.10;;;;;;5072715;28;20477;-69
2021/07/10 04:36:34;;;;;;;2.75;2.55;;;13.50;95.00;;;;;;5072562;28;20032;-69
2021/07/10 04:38:59;;;;;;;2.50;2.40;;;13.40;95.00;;;;;;5072446;28;20506;-68
2021/07/10 04:41:25;;;;;;;4.43;2.83;;;13.40;95.00;;;;;;5072069;28;20039;-68
2021/07/10 04:43:51;;;;;;;4.68;2.83;;;13.40;95.00;;;;;;5072234;28;20408;-69
2021/07/10 04:46:16;;;;;;;3.22;2.90;;;13.40;95.10;;;;;;5048097;28;20040;-69
2021/07/10 04:48:42;;;;;;;5.10;3.47;;;13.50;95.10;;;;;;5072953;28;20032;-68
2021/07/10 04:51:09;;;;;;;7.70;3.55;;;13.50;95.00;;;;;;5072208;28;20433;-69
2021/07/10 04:53:34;;;;;;;13.20;3.53;;;13.50;95.00;;;;;;5072202;28;20024;-68
2021/07/10 04:56:00;;;;;;;7.57;3.67;;;13.50;95.00;;;;;;5071518;28;20711;-68
2021/07/10 04:58:26;;;;;;;12.88;4.63;;;13.50;95.00;;;;;;5071836;28;20036;-68
2021/07/10 05:00:51;;;;;;;4.22;3.88;;;13.60;95.00;;;;;;5071309;28;20111;-68
2021/07/10 05:03:17;;;;;;;4.15;3.42;;;13.60;95.00;;;;;;5066678;28;20473;-68
2021/07/10 05:05:42;;;;;;;5.70;4.60;;;13.60;94.90;;;;;;5071082;28;20108;-68
2021/07/10 05:08:08;;;;;;;5.15;4.43;;;13.70;95.00;;;;;;5072142;28;20043;-68
2021/07/10 05:10:35;;;;;;;4.60;4.20;;;13.70;95.10;;;;;;5071620;28;20066;-68
2021/07/10 05:13:01;;;;;;;5.03;4.53;;;13.80;95.10;;;;;;5071918;28;20393;-68
2021/07/10 05:15:26;;;;;;;9.77;4.57;;;13.80;95.00;;;;;;5071566;28;20035;-68
2021/07/10 05:17:52;;;;;;;6.00;4.60;;;13.90;95.00;;;;;;5071713;28;20028;-68
2021/07/10 05:20:17;;;;;;;6.88;4.35;;;13.90;95.10;;;;;;5071780;28;20032;-69
2021/07/10 05:22:43;;;;;;;20.38;4.50;;;13.90;95.10;;;;;;5078071;28;20492;-68
2021/07/10 05:25:10;;;;;;;10.32;4.25;;;13.90;95.10;;;;;;5069357;28;20051;-68
2021/07/10 05:27:36;;;;;;;4.97;4.38;;;14.00;95.00;;;;;;5070690;28;20021;-68
2021/07/10 05:30:07;;;;;;;17.33;4.60;;;13.90;95.00;;;;;;5071268;28;20096;-68
2021/07/10 05:32:32;;;;;;;6.15;4.72;;;14.00;95.10;;;;;;5071717;28;20381;-68
2021/07/10 05:34:58;;;;;;;5.55;4.75;;;14.00;95.00;;;;;;5068284;28;20031;-68
2021/07/10 05:37:23;;;;;;;5.78;5.18;;;14.00;95.10;;;;;;5071362;28;20032;-69
2021/07/10 05:39:49;;;;;;;5.45;5.05;;;14.00;95.20;;;;;;5071808;28;20064;-69
2021/07/10 05:42:14;;;;;;;6.40;5.35;;;14.10;95.20;;;;;;5070069;28;20024;-68
2021/07/10 05:44:40;;;;;;;5.20;4.70;;;14.10;95.20;;;;;;5070797;28;20029;-68
2021/07/10 05:47:06;;;;;;;4.57;4.18;;;14.20;95.20;;;;;;5070535;28;20028;-68
2021/07/10 05:49:31;;;;;;;5.38;4.88;;;14.20;95.20;;;;;;5072049;28;20028;-69
2021/07/10 05:51:57;;;;;;;6.18;5.05;;;14.30;95.30;;;;;;5052795;28;20056;-68
2021/07/10 05:54:23;;;;;;;6.47;5.85;;;14.30;95.30;;;;;;5081462;28;20028;-69
2021/07/10 05:56:48;;;;;;;5.88;5.30;;;14.30;95.20;;;;;;5074390;28;20055;-69
2021/07/10 05:59:14;;;;;;;8.55;5.82;;;14.40;95.10;;;;;;5070609;28;20028;-68
2021/07/10 06:01:39;;;;;;;6.40;5.80;;;14.40;95.20;;;;;;5052766;28;20033;-68
2021/07/10 06:04:05;;;;;;;6.65;5.93;;;14.50;95.30;;;;;;5064553;28;20044;-68
2021/07/10 06:06:30;;;;;;;6.60;5.35;;;14.50;95.30;;;;;;5069772;28;20209;-68
2021/07/10 06:08:56;;;;;;;5.57;5.07;;;14.60;95.30;;;;;;5071244;28;20044;-68
2021/07/10 06:11:21;;;;;;;6.20;5.40;;;14.70;95.30;;;;;;5071015;28;20020;-68
2021/07/10 06:13:47;;;;;;;6.90;6.20;;;14.80;95.20;;;;;;5067509;28;20040;-68
2021/07/10 06:16:13;;;;;;;6.13;5.53;;;14.80;95.00;;;;;;5070683;28;20100;-68
2021/07/10 06:18:39;;;;;;;6.53;5.93;;;14.80;95.00;;;;;;5070807;28;20423;-68
2021/07/10 06:21:05;;;;;;;6.13;5.53;;;14.70;95.00;;;;;;5052981;28;20045;-69
2021/07/10 06:23:31;;;;;;;6.93;5.30;;;14.70;95.00;;;;;;5070606;28;20162;-68
2021/07/10 06:25:56;;;;;;;9.10;6.35;;;14.70;95.00;;;;;;5078032;28;20063;-69
2021/07/10 06:28:22;;;;;;;6.93;6.22;;;14.70;95.10;;;;;;5067908;28;20016;-69
2021/07/10 06:30:48;;;;;;;6.75;5.47;;;14.80;95.20;;;;;;5067185;28;20025;-69
2021/07/10 06:33:14;;;;;;;7.03;5.47;;;14.90;95.30;;;;;;5069127;28;20452;-69
2021/07/10 06:35:40;;;;;;;7.07;6.25;;;15.10;95.40;;;;;;5068460;28;20116;-68
2021/07/10 06:38:05;;;;;;;7.65;6.10;;;15.20;95.30;;;;;;5066106;28;20032;-68
2021/07/10 06:40:31;;;;;;;6.00;5.40;;;15.40;95.20;;;;;;5070887;28;20027;-68
2021/07/10 06:42:57;;;;;;;6.32;5.72;;;15.40;95.10;;;;;;5070368;28;20025;-68
2021/07/10 06:45:23;;;;;;;6.25;5.40;;;15.60;95.20;;;;;;5070420;28;20025;-68
2021/07/10 06:47:49;;;;;;;5.90;5.20;;;15.70;95.20;;;;;;5069495;28;20099;-69
2021/07/10 06:50:18;;;;;;;5.60;5.10;;;15.80;95.10;;;;;;5069695;28;20473;-68
2021/07/10 06:52:44;;;;;;;5.47;4.95;;;16.00;95.00;;;;;;5052391;28;20119;-68
2021/07/10 06:55:13;;;;;;;5.50;4.53;;;16.10;94.90;;;;;;5069754;28;20021;-68
2021/07/10 06:57:38;;;;;;;5.55;4.85;;;16.20;94.90;;;;;;5069891;28;20025;-68
2021/07/10 07:00:10;;;;;;;5.38;4.88;;;16.40;94.90;;;;;;5069939;28;20021;-68
2021/07/10 07:02:36;;;;;;;6.93;4.72;;;16.50;94.80;;;;;;5064743;28;20028;-68
2021/07/10 07:05:03;;;;;;;6.95;4.43;;;16.70;94.60;;;;;;5064440;28;20512;-68
2021/07/10 07:07:28;;;;;;;4.78;4.28;;;16.80;94.50;;;;;;5052220;28;20031;-68
2021/07/10 07:09:54;;;;;;;5.13;4.63;;;16.90;94.50;;;;;;5068515;28;20380;-68
2021/07/10 07:12:20;;;;;;;5.03;4.28;;;17.00;94.40;;;;;;5070450;28;20101;-68
2021/07/10 07:14:45;;;;;;;5.82;4.57;;;17.30;94.50;;;;;;5069498;28;20066;-68
2021/07/10 07:17:11;;;;;;;6.22;5.00;;;17.50;94.30;;;;;;5068328;28;20036;-69
2021/07/10 07:19:37;;;;;;;4.57;3.88;;;17.70;94.20;;;;;;5069964;28;20063;-68
2021/07/10 07:22:03;;;;;;;4.70;4.25;;;17.90;94.10;;;;;;5070165;28;20040;-68
2021/07/10 07:24:28;;;;;;;4.30;3.90;;;18.20;94.00;;;;;;5069484;28;20036;-69
2021/07/10 07:26:54;;;;;;;4.68;3.75;;;18.40;93.70;;;;;;5069515;28;20445;-69
2021/07/10 07:29:20;;;;;;;5.85;4.10;;;18.70;93.50;;;;;;5066157;28;20093;-69
2021/07/10 07:31:46;;;;;;;3.58;3.28;;;19.00;93.40;;;;;;5070254;28;20496;-68
2021/07/10 07:34:12;;;;;;;4.13;3.67;;;19.20;93.10;;;;;;5066786;28;20334;-68
2021/07/10 07:36:38;;;;;;;6.40;3.80;;;19.40;92.90;;;;;;5068819;28;20477;-68
2021/07/10 07:39:06;;;;;;;3.70;3.38;;;19.70;92.60;;;;;;5069351;28;20048;-67
2021/07/10 07:41:38;;;;;;;6.95;3.33;;;20.00;92.10;;;;;;5050105;28;20485;-67
2021/07/10 07:44:05;;;;;;;3.63;3.25;;;20.30;91.70;;;;;;5069357;28;20036;-68
2021/07/10 07:46:31;;;;;;;4.38;3.33;;;20.60;91.40;;;;;;5068530;28;20025;-67
2021/07/10 07:48:57;;;;;;;3.88;3.22;;;20.90;90.80;;;;;;5068815;28;20043;-66
2021/07/10 07:51:22;;;;;;;4.95;3.58;;;21.20;90.40;;;;;;5068133;28;20028;-66
2021/07/10 07:53:48;;;;;;;7.72;3.28;;;21.40;89.80;;;;;;5067626;28;20480;-66
2021/07/10 07:56:14;;;;;;;5.13;3.90;;;21.60;88.70;;;;;;5060310;28;20028;-68
2021/07/10 07:58:41;;;;;;;4.03;3.28;;;22.00;87.40;;;;;;5048093;28;20448;-68
2021/07/10 08:01:08;;;;;;;4.85;2.78;;;22.20;86.60;;;;;;5068115;28;20100;-66
2021/07/10 08:03:33;;;;;;;3.33;3.03;;;22.50;85.20;;;;;;5067001;28;20078;-66
2021/07/10 08:05:59;;;;;;;3.55;2.85;;;22.90;84.40;;;;;;5069728;28;20357;-65
2021/07/10 08:08:25;;;;;;;3.75;2.42;;;23.10;83.40;;;;;;5069822;28;20056;-66
2021/07/10 08:10:50;;;;;;;3.75;3.35;;;23.40;83.10;;;;;;5066706;28;20448;-66
2021/07/10 08:13:16;;;;;;;3.78;3.33;;;23.80;82.20;;;;;;5069533;28;20032;-67
2021/07/10 08:15:42;;;;;;;3.40;2.80;;;24.00;81.20;;;;;;5069204;28;20084;-66
2021/07/10 08:18:07;;;;;;;3.72;2.70;;;24.30;80.00;;;;;;5069752;28;20461;-67
2021/07/10 08:20:33;;;;;;;3.42;3.00;;;24.60;79.00;;;;;;5065971;28;20097;-67
2021/07/10 08:22:59;;;;;;;3.83;2.80;;;24.90;77.70;;;;;;5055729;28;20021;-67
2021/07/10 08:25:25;;;;;;;3.47;3.15;;;25.00;76.10;;;;;;5071262;28;20059;-68
2021/07/10 08:27:51;;;;;;;3.50;2.63;;;25.10;75.50;;;;;;5072924;28;20017;-67
2021/07/10 08:30:18;;;;;;;3.08;2.47;;;25.30;75.20;;;;;;5071964;28;20012;-67
2021/07/10 08:32:45;;;;;;;3.00;2.67;;;25.60;74.40;;;;;;5058125;28;20103;-67
2021/07/10 08:35:12;;;;;;;2.75;2.55;;;25.90;73.00;;;;;;5080480;28;20021;-68
2021/07/10 08:37:38;;;;;;;3.10;2.80;;;26.20;72.00;;;;;;5072998;28;20071;-66
2021/07/10 08:40:06;;;;;;;2.50;2.30;;;26.40;70.90;;;;;;5073320;28;20020;-67
2021/07/10 08:42:31;;;;;;;2.70;2.50;;;26.70;70.40;;;;;;5055201;28;20039;-67
2021/07/10 08:45:03;;;;;;;4.40;2.40;;;27.00;69.50;;;;;;5053877;28;20040;-68
2021/07/10 08:47:30;;;;;;;;;;;27.30;68.00;;;;;;5073224;28;20488;-68
2021/07/10 08:49:57;;;;;;;4.00;2.50;;;27.70;70.50;;;;;;5051059;28;19909;-68
2021/07/10 08:52:24;;;;;;;3.22;2.35;;;28.10;68.20;;;;;;5068740;28;20039;-67
2021/07/10 08:54:49;;;;;;;3.00;2.58;;;28.50;66.70;;;;;;5071386;28;20031;-69
2021/07/10 08:57:17;;;;;;;4.05;2.80;;;29.00;64.70;;;;;;5072984;28;20028;-67
2021/07/10 08:59:43;;;;;;;3.38;2.45;;;29.30;62.30;;;;;;5072152;28;20427;-69
2021/07/10 09:02:09;;;;;;;4.68;2.22;;;29.30;61.70;;;;;;5072701;28;20021;-67
2021/07/10 09:04:34;;;;;;;3.17;2.38;;;29.00;61.30;;;;;;5071332;28;20062;-70
2021/07/10 09:07:00;;;;;;;4.05;2.42;;;29.30;60.50;;;;;;5072637;28;20035;-67
2021/07/10 09:09:47;;;;;;;4.15;2.53;;;29.50;59.40;;;;;;5073088;28;20043;-67
2021/07/10 09:12:26;;;;;;;3.85;2.60;;;29.80;59.30;;;;;;5072407;28;20029;-67
2021/07/10 09:14:51;;;;;;;4.47;2.20;;;29.90;57.70;;;;;;5071693;28;20043;-67
2021/07/10 09:17:19;;;;;;;5.93;2.20;;;29.90;57.50;;;;;;5072563;28;20024;-67
2021/07/10 09:19:46;;;;;;;2.38;2.17;;;29.50;57.70;;;;;;5071884;28;20024;-68
2021/07/10 09:22:22;;;;;;;3.92;2.58;;;29.80;57.70;;;;;;5039706;28;20116;-68
2021/07/10 09:24:49;;;;;;;2.30;2.10;;;30.10;56.60;;;;;;5071217;28;20064;-67
2021/07/10 09:27:15;;;;;;;3.58;2.33;;;30.50;55.90;;;;;;5072380;28;20029;-67
2021/07/10 09:29:43;;;;;;;2.53;1.80;;;30.90;55.50;;;;;;5053562;28;20025;-68
2021/07/10 09:32:16;;;;;;;4.90;2.03;;;31.40;54.80;;;;;;5071523;28;20031;-67
2021/07/10 09:34:54;;;;;;;2.72;2.00;;;31.60;53.30;;;;;;5065176;28;20450;-69
2021/07/10 09:37:21;;;;;;;1.90;1.80;;;31.70;52.70;;;;;;5072230;28;20039;-67
2021/07/10 09:39:54;;;;;;;3.90;2.25;;;31.70;52.50;;;;;;5072414;28;20066;-68
2021/07/10 09:42:25;;;;;;;2.42;2.22;;;32.00;51.00;;;;;;5072004;28;20112;-67
2021/07/10 09:44:53;;;;;;;2.27;2.10;;;32.40;50.60;;;;;;5071234;28;20465;-68
2021/07/10 09:47:33;;;;;;;2.10;2.00;;;32.60;49.90;;;;;;5067902;28;20027;-67
2021/07/10 09:50:00;;;;;;;2.10;1.95;;;31.70;49.80;;;;;;5070820;28;20029;-65
2021/07/10 09:52:30;;;;;;;2.00;1.90;;;31.70;50.20;;;;;;5052218;28;20021;-67
2021/07/10 09:55:05;;;;;;;2.17;1.70;;;31.30;50.30;;;;;;5070016;28;20047;-66
2021/07/10 09:57:34;;;;;;;1.83;1.73;;;31.30;50.80;;;;;;5070940;28;20043;-66
2021/07/10 10:00:04;;;;;;;2.80;2.50;;;30.80;51.50;;;;;;5070715;28;20033;-69
2021/07/10 10:02:32;;;;;;;6.18;2.10;;;30.90;51.70;;;;;;5070722;28;20123;-65
2021/07/10 10:05:07;;;;;;;3.05;2.10;;;30.10;52.50;;;;;;5064440;28;20032;-65
2021/07/10 10:07:47;;;;;;;3.47;1.90;;;29.30;52.70;;;;;;5070952;28;20170;-66
2021/07/10 10:10:24;;;;;;;1.77;1.48;;;29.30;53.10;;;;;;5070813;28;20186;-68
2021/07/10 10:13:04;;;;;;;3.50;1.75;;;29.00;53.20;;;;;;5050792;28;20032;-67
2021/07/10 10:15:31;;;;;;;2.77;1.83;;;28.60;54.20;;;;;;5070317;28;20028;-66
2021/07/10 10:17:58;;;;;;;2.28;2.08;;;28.50;55.30;;;;;;5071410;28;20363;-66
2021/07/10 10:20:23;;;;;;;1.95;1.85;;;28.60;55.20;;;;;;5070774;28;20024;-67
2021/07/10 10:22:50;;;;;;;1.92;1.80;;;28.20;55.80;;;;;;5064227;28;20025;-69
2021/07/10 10:25:16;;;;;;;2.05;1.88;;;27.80;56.40;;;;;;5048464;28;20136;-70
2021/07/10 10:27:47;;;;;;;2.88;1.80;;;27.50;56.20;;;;;;5053706;28;20033;-69
2021/07/10 10:30:15;;;;;;;2.60;1.60;;;27.40;56.20;;;;;;5052648;28;20025;-68
2021/07/10 10:32:43;;;;;;;1.92;1.65;;;27.20;56.70;;;;;;5068328;28;20032;-70
2021/07/10 10:35:09;;;;;;;5.05;4.22;;;27.20;57.00;;;;;;5066316;28;20025;-69
2021/07/10 10:37:36;;;;;;;2.65;2.00;;;27.30;57.90;;;;;;5074210;22;20064;-66
2021/07/10 10:40:10;;;;;;;2.17;2.08;;;27.10;57.70;;;;;;5044878;28;20538;-71
2021/07/10 10:42:36;;;;;;;2.85;1.70;;;27.10;57.30;;;;;;5039527;28;20029;-67
2021/07/10 10:45:04;;;;;;;1.90;1.65;;;27.00;58.20;;;;;;5031430;28;20034;-66
2021/07/10 10:47:45;;;;;;;2.08;1.88;;;26.90;57.80;;;;;;5033292;28;20369;-71
2021/07/10 10:50:28;;;;;;;1.95;1.85;;;26.90;58.10;;;;;;5026500;28;20544;-67
2021/07/10 10:52:56;;;;;;;3.25;1.73;;;26.80;58.60;;;;;;5033071;28;20103;-67
2021/07/10 10:55:31;;;;;;;2.22;1.83;;;26.60;58.50;;;;;;5028547;28;20072;-67
2021/07/10 10:58:15;;;;;;;4.75;2.13;;;26.20;58.40;;;;;;5018016;28;20033;-68
2021/07/10 11:00:43;;;;;;;2.42;2.08;;;26.00;59.10;;;;;;5028338;28;20022;-68
2021/07/10 11:03:20;;;;;;;1.80;1.70;;;25.80;59.20;;;;;;5010362;28;20120;-69
2021/07/10 11:05:52;;;;;;;2.30;1.85;;;25.60;59.70;;;;;;5032470;28;20017;-68
2021/07/10 11:08:18;;;;;;;2.28;2.10;;;25.50;59.70;;;;;;5027627;28;20056;-68
2021/07/10 11:10:46;;;;;;;2.35;1.95;;;25.40;59.40;;;;;;5029984;28;20049;-68
2021/07/10 11:13:31;;;;;;;2.00;1.90;;;25.30;59.30;;;;;;5030318;28;20053;-66
2021/07/10 11:16:20;;;;;;;4.80;1.92;;;25.40;59.60;;;;;;5027869;28;20032;-69
2021/07/10 11:18:53;;;;;;;3.53;2.10;;;25.50;60.10;;;;;;5023256;28;20374;-67
2021/07/10 11:21:53;;;;;;;3.15;1.60;;;25.50;60.80;;;;;;5015047;28;20093;-70
2021/07/10 11:24:19;;;;;;;2.65;1.90;;;25.40;60.60;;;;;;5021583;28;20029;-72
2021/07/10 11:26:53;;;;;;;1.83;1.58;;;25.20;61.00;;;;;;5011489;28;20021;-67
2021/07/10 11:29:31;;;;;;;2.97;2.03;;;25.00;61.10;;;;;;5029169;28;20024;-72
2021/07/10 11:32:11;;;;;;;2.60;2.10;;;24.90;61.20;;;;;;5029161;28;20040;-68
2021/07/10 11:34:46;;;;;;;1.95;1.63;;;24.80;61.50;;;;;;5023212;28;20652;-71
2021/07/10 11:37:15;;;;;;;2.22;1.88;;;24.70;61.60;;;;;;5009291;28;20034;-69
2021/07/10 11:39:42;;;;;;;2.08;1.83;;;24.80;62.20;;;;;;5029043;28;20033;-67
2021/07/10 11:42:21;;;;;;;3.55;1.90;;;24.80;62.20;;;;;;5012847;28;20033;-68
2021/07/10 11:44:49;;;;;;;2.20;1.98;;;24.90;62.50;;;;;;5021244;28;20029;-67
2021/07/10 11:47:40;;;;;;;3.15;2.00;;;24.90;62.50;;;;;;5028826;28;20717;-70
2021/07/10 11:50:27;;;;;;;2.55;1.90;;;24.90;61.80;;;;;;5030104;28;20028;-71
2021/07/10 11:53:03;;;;;;;2.15;2.00;;;25.00;63.00;;;;;;5019022;28;20080;-71
2021/07/10 11:55:31;;;;;;;2.00;1.52;;;25.10;62.70;;;;;;5009962;28;20097;-69
2021/07/10 11:58:00;;;;;;;2.55;1.75;;;25.20;62.60;;;;;;4996991;28;20096;-68
2021/07/10 12:00:26;;;;;;;2.38;1.60;;;25.30;62.60;;;;;;5014952;28;20022;-68
2021/07/10 12:02:52;;;;;;;2.05;1.88;;;25.40;62.10;;;;;;5014265;28;20089;-71
2021/07/10 12:05:19;;;;;;;2.80;1.60;;;25.40;61.80;;;;;;5029641;28;20075;-65
2021/07/10 12:07:46;;;;;;;2.00;1.77;;;25.50;62.20;;;;;;5032484;28;20100;-67
2021/07/10 12:10:25;;;;;;;1.65;1.55;;;25.60;61.80;;;;;;5042314;28;20025;-67
2021/07/10 12:12:57;;;;;;;1.70;1.60;;;25.70;61.70;;;;;;5054398;28;20025;-71
2021/07/10 12:15:25;;;;;;;2.60;1.90;;;25.60;61.40;;;;;;5033815;28;20448;-71
2021/07/10 12:17:54;;;;;;;2.40;2.05;;;25.50;61.40;;;;;;5033289;28;20390;-69
2021/07/10 12:20:29;;;;;;;1.75;1.60;;;25.30;61.20;;;;;;5018841;28;20536;-67
2021/07/10 12:23:02;;;;;;;1.90;1.80;;;25.10;61.00;;;;;;5027656;28;20478;-71
2021/07/10 12:25:31;;;;;;;1.70;1.60;;;25.00;61.70;;;;;;5031078;28;20096;-69
2021/07/10 12:28:03;;;;;;;1.88;1.60;;;25.00;62.30;;;;;;5033360;28;20032;-69
2021/07/10 12:30:47;;;;;;;1.98;1.77;;;25.10;62.80;;;;;;5016291;28;20017;-68
2021/07/10 12:33:33;;;;;;;1.98;1.42;;;25.20;62.90;;;;;;5033487;28;20057;-70
2021/07/10 12:36:35;;;;;;;1.67;1.58;;;25.40;62.50;;;;;;5031577;28;20497;-72
2021/07/10 12:39:01;;;;;;;2.53;1.40;;;25.50;62.70;;;;;;5033109;28;20120;-70
2021/07/10 12:41:26;;;;;;;1.65;1.40;;;25.60;62.90;;;;;;5052181;28;20055;-67
2021/07/10 12:43:53;;;;;;;3.45;1.52;;;25.50;62.40;;;;;;5047542;28;20140;-66
2021/07/10 12:46:19;;;;;;;1.65;1.55;;;25.40;62.30;;;;;;5032211;28;20100;-65
2021/07/10 12:48:46;;;;;;;2.20;1.50;;;25.30;62.00;;;;;;5031254;28;20545;-68